To NAV CANADA Home Page Login to a new session Search on AWWS site Feedback and Comments Disclaimer Vers la page française équivalente Tips FAQ What's new on the site To the Forecasts and Observations / NOTAM section To "File a Flight Plan" website Publications and other links Update of the User's profile FIC Telephone Numbers My Weather Data Folder Route Weather Data Regional Weather Data Local Weather Data To the Forecasts and Observations / NOTAM section
Request Generated 05/29/2016 at 03:46:32 UTC . Weather information available at that time is displayed.

METAR/TAF

SAINT JOHN/NB    

METAR CYSJ 290300Z 09010KT 15SM BKN170 08/06 A3024 RMK AC6 SLP244=
METAR CYSJ 290200Z 10007KT 15SM FEW120 BKN190 09/07 A3024 RMK AC1CI5
SLP243=
METAR CYSJ 290100Z 09007KT 15SM FEW033 SCT120 BKN260 10/07 A3023 RMK
SC1AC2CI3 SLP240=

TAF CYSJ 282339Z 2900/2912 11005KT P6SM SCT020 TEMPO 2900/2909 BKN020
BECMG 2902/2904 VRB03KT
FM290900 VRB03KT P6SM OVC150
BECMG 2910/2912 11010KT
RMK NXT FCST BY 290600Z=
Your time UTC time
Weather data provided by Environment Canada and NAV CANADA